King Salmon, AK

12:59 AM AKDT on July 23, 2014 (GMT -0800)
Port Heiden (PAPH) Elev 95 ft | 56.96 °N, 158.63 °W | Change Station

Current weather conditions updated 3 minutes ago

Overcast
Overcast
54 °F
Feels Like 54 °F
N
16
Wind Variable Wind from WSW
Gusts 22 mph

Today is forecast to be Cooler than yesterday. Showers.

Today
High -- | Low -- °F
--% Chance of Precip.
Yesterday
High -- | Low -- °F
Precip. -- in
6:16 AM 11:04 PM
Waning Crescent, 11% visible
Pressure 30.03 in
Visibility 10.0 miles
Clouds Scattered Clouds 1600 ft
Mostly Cloudy 2500 ft
Overcast 4400 ft
Dew Point 46 °F
Humidity 77%
Rainfall 0.00 in
Snow Depth Not available.
UV 0 out of 12
Pollen Not available.
Air Quality Not available.
Flu Activity Not available.
METAR PAPH 230856Z AUTO 24014G19KT 10SM SCT016 BKN025 OVC044 12/08 A3003 RMK AO1 52003

More Conditions Fewer Conditions

Pressure 30.03 in
Visibility 10.0 miles
Clouds Scattered Clouds 1600 ft
Mostly Cloudy 2500 ft
Overcast 4400 ft
Dew Point 46 °F
Humidity 77%
Rainfall 0.00 in
Snow Depth Not available.
UV 0 out of 12
Pollen Not available.
Air Quality Not available.
Flu Activity Not available.
METAR PAPH 230856Z AUTO 24014G19KT 10SM SCT016 BKN025 OVC044 12/08 A3003 RMK AO1 52003

More Conditions Fewer Conditions

10-Day Weather Forecast

Almanac

Astronomy

Jul. 23, 2014 Rise Set
Actual Time 6:16 AM AKDT 11:04 PM AKDT
Civil Twilight 5:21 AM AKDT 11:58 PM AKDT
Nautical Twilight 3:40 AM AKDT 1:36 AM AKDT
Astronomical Twilight Sun does not rise Sun does not rise
Moon 3:50 AM AKDT 8:36 PM AKDT
Length of Visible Light 18h 37m
Length of Day
16h 47m
Tomorrow will be 3m 38s shorter.
Waning Crescent, 11% of the Moon is Illuminated
Today
Waning Crescent
Jul 26
New
Aug 3
First Quarter
Aug 10
Full
Aug 17
Last Quarter

Today's Extremes

State Highs State Lows

Community

WunderPhotos

Upload Photos

1,736,529 photos uploaded!

Nearby

Snow Depth

Station Depth Elevation
Port Graham 0 in 300 ft
Mcneil Canyon 1 in 1320 ft
MF Bradley River 25 in 2300 ft
Nuka Glacier 123 in 1250 ft
Cooper Lake 12 in 1200 ft

Earthquake Activity

City Distance Mag. Time & Date
No recent earthquake activity has been reported nearby.
Minimum magnitude displayed is 2.5.

Coastal Water Temperatures

Place Temperature
No Stations Reporting

Nearby Weather Stations

There are no personal weather stations in this area.